ΕΜΥ, Εθνική Μετεωρολογική Υπηρεσία - Δελτία Καιρού, Προγνώσεις

ΑΕΡΟΝΑΥΤΙΛΙΑ

GREEK AIRPORTS CODES

LGZA 241750Z 19014KT 9999 SCT016 SCT018 BKN070 14/12 Q1011=

EUROPEAN AIRPORTS CODES

EBBR 242050Z 15007KT 9999 -RA BKN014 01/M00 Q0996 NOSIG=